Time;durP1;ratioP1;P1;durP2;ratioP2;P2;SDS_P1;SDS_P2;PMS_P1;PMS_P2;Temp;Humidity;BMP_temperature;BMP_pressure;BME280_temperature;BME280_humidity;BME280_pressure;Samples;Min_cycle;Max_cycle;Signal;HPM_P1;HPM_P2
2022/05/05 00:01:43;;;;;;;4.10;2.00;;;;;;;;;;5090060;28;20178;-71
2022/05/05 00:04:09;;;;;;;3.90;2.47;;;;;;;;;;5090061;28;20092;-70
2022/05/05 00:06:36;;;;;;;4.68;2.35;;;;;;;;;;5089924;28;20047;-70
2022/05/05 00:09:03;;;;;;;3.50;2.13;;;;;;;;;;5090493;28;20059;-70
2022/05/05 00:14:31;;;;;;;4.25;2.30;;;;;;;;;;5089956;28;20052;-70
2022/05/05 00:17:00;;;;;;;3.72;2.22;;;;;;;;;;5090437;28;20436;-70
2022/05/05 00:19:27;;;;;;;3.30;2.27;;;;;;;;;;5089599;28;20508;-70
2022/05/05 00:21:53;;;;;;;2.53;1.83;;;;;;;;;;5071650;28;20694;-70
2022/05/05 00:24:19;;;;;;;3.00;2.10;;;;;;;;;;5071721;28;20040;-70
2022/05/05 00:26:45;;;;;;;3.25;2.08;;;;;;;;;;5071582;28;20458;-71
2022/05/05 00:29:11;;;;;;;4.35;2.30;;;;;;;;;;5089744;28;20048;-69
2022/05/05 00:31:37;;;;;;;3.40;2.20;;;;;;;;;;5089442;28;20402;-69
2022/05/05 00:34:03;;;;;;;3.17;2.00;;;;;;;;;;5089864;28;20085;-69
2022/05/05 00:36:29;;;;;;;3.97;2.40;;;;;;;;;;5071290;28;20040;-68
2022/05/05 00:38:56;;;;;;;9.35;2.65;;;;;;;;;;5089458;28;20047;-70
2022/05/05 00:41:22;;;;;;;6.75;3.45;;;;;;;;;;5071501;28;20048;-70
2022/05/05 00:44:25;;;;;;;5.03;2.22;;;;;;;;;;5070839;28;20560;-70
2022/05/05 00:46:51;;;;;;;4.05;2.10;;;;;;;;;;5071103;28;20127;-70
2022/05/05 00:49:18;;;;;;;5.85;2.28;;;;;;;;;;5089181;28;20047;-69
2022/05/05 00:51:45;;;;;;;4.97;2.03;;;;;;;;;;5088745;28;20051;-70
2022/05/05 00:54:11;;;;;;;8.15;2.25;;;;;;;;;;5089172;28;20048;-70
2022/05/05 00:56:38;;;;;;;4.07;2.20;;;;;;;;;;5089156;28;20047;-71
2022/05/05 00:59:05;;;;;;;4.70;2.42;;;;;;;;;;5088613;28;20135;-69
2022/05/05 01:01:31;;;;;;;5.03;2.17;;;;;;;;;;5071068;28;20473;-70
2022/05/05 01:03:58;;;;;;;5.57;2.40;;;;;;;;;;5088687;28;20047;-71
2022/05/05 01:06:24;;;;;;;3.50;2.00;;;;;;;;;;5089208;28;20055;-72
2022/05/05 01:08:50;;;;;;;3.60;2.10;;;;;;;;;;5071221;28;20052;-71
2022/05/05 01:11:16;;;;;;;3.30;2.20;;;;;;;;;;5088835;28;20481;-71
2022/05/05 01:13:42;;;;;;;3.40;2.60;;;;;;;;;;5088326;28;20438;-72
2022/05/05 01:16:09;;;;;;;5.45;2.15;;;;;;;;;;5089101;28;20079;-72
2022/05/05 01:18:37;;;;;;;3.10;1.85;;;;;;;;;;5088795;28;20480;-72
2022/05/05 01:21:03;;;;;;;3.17;2.05;;;;;;;;;;5070685;28;20084;-70
2022/05/05 01:23:29;;;;;;;5.05;2.50;;;;;;;;;;5088721;28;20046;-69
2022/05/05 01:28:43;;;;;;;3.97;2.00;;;;;;;;;;5088586;28;20070;-70
2022/05/05 01:31:09;;;;;;;4.60;2.50;;;;;;;;;;5088523;28;20048;-71
2022/05/05 01:33:35;;;;;;;2.13;1.90;;;;;;;;;;5089042;28;20043;-71
2022/05/05 01:36:01;;;;;;;5.28;2.00;;;;;;;;;;5088452;28;20043;-71
2022/05/05 01:38:37;;;;;;;4.43;2.20;;;;;;;;;;5088148;28;20584;-70
2022/05/05 01:41:07;;;;;;;2.80;1.95;;;;;;;;;;5088350;28;20036;-70
2022/05/05 01:43:34;;;;;;;4.28;2.00;;;;;;;;;;5053471;28;20047;-70
2022/05/05 01:46:00;;;;;;;6.90;2.42;;;;;;;;;;5088622;28;20437;-71
2022/05/05 01:48:26;;;;;;;3.20;2.13;;;;;;;;;;5088779;28;20051;-71
2022/05/05 01:50:52;;;;;;;4.78;2.28;;;;;;;;;;5088317;28;20052;-71
2022/05/05 01:53:19;;;;;;;4.25;2.30;;;;;;;;;;5088173;28;20450;-71
2022/05/05 01:55:45;;;;;;;3.53;2.00;;;;;;;;;;5070336;28;20469;-71
2022/05/05 01:58:11;;;;;;;3.20;2.10;;;;;;;;;;5088435;28;20051;-71
2022/05/05 02:00:38;;;;;;;3.05;1.70;;;;;;;;;;5088237;28;20348;-71
2022/05/05 02:03:12;;;;;;;3.75;2.40;;;;;;;;;;5087786;28;20044;-69
2022/05/05 02:05:39;;;;;;;4.88;2.10;;;;;;;;;;5088421;28;20056;-69
2022/05/05 02:08:05;;;;;;;4.18;2.35;;;;;;;;;;5088438;28;20123;-69
2022/05/05 02:10:31;;;;;;;3.45;1.92;;;;;;;;;;5089087;28;20051;-69
2022/05/05 02:12:58;;;;;;;4.32;2.22;;;;;;;;;;5092246;28;20047;-70
2022/05/05 02:15:24;;;;;;;3.55;2.10;;;;;;;;;;5091803;28;20408;-70
2022/05/05 02:17:51;;;;;;;4.13;2.33;;;;;;;;;;5091964;28;20048;-70
2022/05/05 02:20:17;;;;;;;3.97;2.08;;;;;;;;;;5092339;28;20048;-70
2022/05/05 02:22:43;;;;;;;3.63;2.10;;;;;;;;;;5092192;28;20044;-70
2022/05/05 02:25:09;;;;;;;3.38;1.95;;;;;;;;;;5092065;28;20048;-70
2022/05/05 02:27:51;;;;;;;2.97;2.10;;;;;;;;;;5091701;28;20048;-70
2022/05/05 02:30:19;;;;;;;3.35;1.98;;;;;;;;;;5092197;28;20056;-70
2022/05/05 02:32:45;;;;;;;4.15;2.03;;;;;;;;;;5091872;28;20048;-70
2022/05/05 02:35:11;;;;;;;3.42;2.08;;;;;;;;;;5091858;28;20409;-70
2022/05/05 02:40:22;;;;;;;4.65;2.22;;;;;;;;;;5091882;28;20050;-71
2022/05/05 02:42:48;;;;;;;5.50;2.28;;;;;;;;;;5090925;28;20134;-70
2022/05/05 02:45:14;;;;;;;3.90;2.17;;;;;;;;;;5091865;28;20040;-71
2022/05/05 02:47:40;;;;;;;4.40;2.53;;;;;;;;;;5091731;28;20473;-72
2022/05/05 02:50:06;;;;;;;3.63;2.00;;;;;;;;;;5073360;28;20575;-71
2022/05/05 02:52:32;;;;;;;2.17;1.67;;;;;;;;;;5091377;28;20048;-71
2022/05/05 02:54:59;;;;;;;4.80;2.28;;;;;;;;;;5073148;28;20047;-71
2022/05/05 02:57:25;;;;;;;2.60;1.80;;;;;;;;;;5090987;28;20091;-71
2022/05/05 02:59:53;;;;;;;4.38;2.30;;;;;;;;;;5056560;28;20048;-68
2022/05/05 03:02:19;;;;;;;12.32;2.22;;;;;;;;;;5091416;28;20127;-70
2022/05/05 03:04:45;;;;;;;4.00;1.88;;;;;;;;;;5091062;28;20056;-71
2022/05/05 03:07:11;;;;;;;6.97;2.10;;;;;;;;;;5090715;28;20139;-71
2022/05/05 03:09:39;;;;;;;4.70;2.22;;;;;;;;;;5072826;28;20040;-71
2022/05/05 03:12:05;;;;;;;3.83;2.05;;;;;;;;;;5090867;28;20051;-71
2022/05/05 03:14:31;;;;;;;3.60;2.00;;;;;;;;;;5091260;28;20550;-71
2022/05/05 03:16:58;;;;;;;5.65;2.33;;;;;;;;;;5090926;28;20320;-71
2022/05/05 03:19:24;;;;;;;7.35;2.05;;;;;;;;;;5090943;28;20800;-69
2022/05/05 03:21:50;;;;;;;5.03;2.00;;;;;;;;;;5090000;28;20145;-70
2022/05/05 03:24:16;;;;;;;3.42;2.00;;;;;;;;;;5090981;28;20135;-70
2022/05/05 03:26:42;;;;;;;2.65;1.85;;;;;;;;;;5090831;28;20083;-71
2022/05/05 03:29:08;;;;;;;4.25;2.03;;;;;;;;;;5090844;28;20071;-71
2022/05/05 03:31:34;;;;;;;4.60;2.28;;;;;;;;;;5073070;28;20040;-70
2022/05/05 03:34:00;;;;;;;3.45;2.22;;;;;;;;;;5090262;28;20058;-72
2022/05/05 03:36:26;;;;;;;3.85;2.03;;;;;;;;;;5090511;28;20403;-71
2022/05/05 03:38:54;;;;;;;2.95;2.05;;;;;;;;;;5072579;28;20090;-71
2022/05/05 03:41:20;;;;;;;4.00;2.00;;;;;;;;;;5072162;28;20147;-71
2022/05/05 03:43:46;;;;;;;4.60;2.28;;;;;;;;;;5090427;28;20071;-70
2022/05/05 03:46:12;;;;;;;6.35;2.22;;;;;;;;;;5090469;28;20398;-70
2022/05/05 03:48:38;;;;;;;3.35;1.88;;;;;;;;;;5090113;28;20072;-71
2022/05/05 03:51:04;;;;;;;3.97;1.80;;;;;;;;;;5090400;28;20052;-70
2022/05/05 03:53:30;;;;;;;6.20;2.15;;;;;;;;;;5089939;28;20044;-70
2022/05/05 03:55:56;;;;;;;4.00;1.85;;;;;;;;;;5090215;28;20074;-71
2022/05/05 03:58:22;;;;;;;2.95;1.90;;;;;;;;;;5090246;28;20040;-70
2022/05/05 04:00:48;;;;;;;4.88;2.10;;;;;;;;;;5072000;28;20051;-71
2022/05/05 04:03:30;;;;;;;3.92;1.98;;;;;;;;;;5089643;28;20075;-70
2022/05/05 04:05:56;;;;;;;4.28;1.88;;;;;;;;;;5089672;28;20051;-69
2022/05/05 04:08:22;;;;;;;6.75;2.15;;;;;;;;;;5072298;28;20105;-70
2022/05/05 04:10:48;;;;;;;4.72;2.03;;;;;;;;;;5090066;28;20055;-70
2022/05/05 04:13:14;;;;;;;3.88;2.47;;;;;;;;;;5090027;28;20043;-70
2022/05/05 04:15:40;;;;;;;5.95;1.85;;;;;;;;;;5089533;28;20044;-70
2022/05/05 04:18:07;;;;;;;4.25;2.13;;;;;;;;;;5089806;28;20048;-70
2022/05/05 04:20:33;;;;;;;4.65;2.10;;;;;;;;;;5071967;28;20067;-70
2022/05/05 04:22:59;;;;;;;3.25;2.00;;;;;;;;;;5089173;28;20052;-70
2022/05/05 04:25:25;;;;;;;6.05;2.30;;;;;;;;;;5089988;28;20541;-69
2022/05/05 04:27:52;;;;;;;2.78;1.80;;;;;;;;;;5089772;28;20471;-69
2022/05/05 04:30:18;;;;;;;3.13;2.00;;;;;;;;;;5089680;28;20135;-70
2022/05/05 04:32:45;;;;;;;2.83;2.03;;;;;;;;;;5089900;28;20501;-69
2022/05/05 04:35:11;;;;;;;3.83;1.80;;;;;;;;;;5088748;28;20048;-69
2022/05/05 04:37:37;;;;;;;2.72;1.88;;;;;;;;;;5088947;28;20521;-69
2022/05/05 04:40:04;;;;;;;3.95;1.95;;;;;;;;;;5089778;28;21096;-70
2022/05/05 04:42:30;;;;;;;4.65;2.13;;;;;;;;;;5089580;28;20044;-70
2022/05/05 04:44:56;;;;;;;3.28;2.20;;;;;;;;;;5089464;28;20052;-70
2022/05/05 04:47:22;;;;;;;4.70;2.13;;;;;;;;;;5089638;28;20131;-70
2022/05/05 04:49:48;;;;;;;2.92;1.77;;;;;;;;;;5089001;28;20052;-70
2022/05/05 04:52:14;;;;;;;2.85;2.00;;;;;;;;;;5089433;28;20122;-70
2022/05/05 04:54:40;;;;;;;5.25;2.08;;;;;;;;;;5089140;28;20047;-68
2022/05/05 04:57:06;;;;;;;4.40;1.90;;;;;;;;;;5072103;28;20455;-69
2022/05/05 04:59:32;;;;;;;5.70;2.20;;;;;;;;;;5065983;28;20551;-71
2022/05/05 05:01:58;;;;;;;6.78;2.15;;;;;;;;;;5075526;28;20032;-71
2022/05/05 05:04:24;;;;;;;6.90;2.13;;;;;;;;;;5089071;28;20055;-71
2022/05/05 05:06:50;;;;;;;4.20;1.90;;;;;;;;;;5089177;28;20060;-71
2022/05/05 05:09:16;;;;;;;3.83;1.90;;;;;;;;;;5073208;28;20045;-69
2022/05/05 05:11:42;;;;;;;3.58;1.80;;;;;;;;;;5068794;28;20087;-69
2022/05/05 05:14:08;;;;;;;5.05;1.80;;;;;;;;;;5049958;28;20512;-70
2022/05/05 05:16:36;;;;;;;9.18;1.67;;;;;;;;;;5050926;28;20049;-70
2022/05/05 05:19:03;;;;;;;4.90;1.92;;;;;;;;;;5050875;28;20506;-70
2022/05/05 05:21:29;;;;;;;3.88;1.55;;;;;;;;;;5068835;28;20097;-70
2022/05/05 05:23:55;;;;;;;5.13;2.05;;;;;;;;;;5051002;28;20075;-70
2022/05/05 05:26:21;;;;;;;2.90;1.60;;;;;;;;;;5068429;28;20049;-70
2022/05/05 05:28:47;;;;;;;4.90;1.90;;;;;;;;;;5068643;28;20043;-70
2022/05/05 05:31:13;;;;;;;5.13;1.80;;;;;;;;;;5068842;28;20517;-70
2022/05/05 05:33:39;;;;;;;5.50;1.98;;;;;;;;;;5051010;28;20048;-71
2022/05/05 05:36:06;;;;;;;3.83;1.88;;;;;;;;;;5068699;28;20056;-69
2022/05/05 05:38:32;;;;;;;4.70;1.85;;;;;;;;;;5034124;28;20125;-69
2022/05/05 05:40:58;;;;;;;4.90;1.70;;;;;;;;;;5068579;28;20041;-69
2022/05/05 05:43:24;;;;;;;2.78;1.50;;;;;;;;;;5068894;28;20037;-68
2022/05/05 05:45:50;;;;;;;3.72;1.50;;;;;;;;;;5069619;28;20044;-70
2022/05/05 05:48:16;;;;;;;3.70;1.50;;;;;;;;;;5072406;28;20458;-69
2022/05/05 05:50:42;;;;;;;3.88;1.70;;;;;;;;;;5054845;28;20518;-68
2022/05/05 05:53:08;;;;;;;4.47;1.80;;;;;;;;;;5072625;28;20051;-69
2022/05/05 05:55:35;;;;;;;5.45;1.75;;;;;;;;;;5072239;28;20183;-68
2022/05/05 05:58:01;;;;;;;2.83;1.52;;;;;;;;;;5072763;28;20145;-68
2022/05/05 06:00:28;;;;;;;2.63;1.75;;;;;;;;;;5054396;28;20044;-69
2022/05/05 06:05:39;;;;;;;2.08;1.35;;;;;;;;;;5086934;28;20112;-69
2022/05/05 06:08:05;;;;;;;3.25;1.65;;;;;;;;;;5092453;28;20166;-68
2022/05/05 06:10:31;;;;;;;7.03;2.20;;;;;;;;;;5092673;28;20047;-70
2022/05/05 06:12:57;;;;;;;3.30;1.70;;;;;;;;;;5074649;28;20044;-71
2022/05/05 06:15:24;;;;;;;8.00;2.10;;;;;;;;;;5092722;28;20048;-69
2022/05/05 06:17:50;;;;;;;5.10;1.80;;;;;;;;;;5074006;28;20051;-72
2022/05/05 06:20:16;;;;;;;8.23;2.20;;;;;;;;;;5092291;28;20052;-71
2022/05/05 06:22:43;;;;;;;5.03;1.80;;;;;;;;;;5091882;28;20041;-72
2022/05/05 06:25:11;;;;;;;7.18;2.40;;;;;;;;;;5073879;28;20181;-71
2022/05/05 06:27:38;;;;;;;3.72;1.77;;;;;;;;;;5092005;28;20044;-70
2022/05/05 06:30:05;;;;;;;7.65;1.83;;;;;;;;;;5092512;28;20040;-69
2022/05/05 06:32:31;;;;;;;5.15;2.15;;;;;;;;;;5092072;28;20051;-69
2022/05/05 06:34:57;;;;;;;6.25;1.85;;;;;;;;;;5091927;28;20059;-69
2022/05/05 06:37:24;;;;;;;7.30;1.63;;;;;;;;;;5073675;28;20413;-69
2022/05/05 06:39:50;;;;;;;7.47;2.38;;;;;;;;;;5091623;28;20078;-69
2022/05/05 06:42:16;;;;;;;7.50;2.63;;;;;;;;;;5092027;28;20098;-71
2022/05/05 06:44:42;;;;;;;9.65;1.65;;;;;;;;;;5091933;28;20044;-68
2022/05/05 06:47:08;;;;;;;8.57;2.22;;;;;;;;;;5073619;28;20047;-67
2022/05/05 06:49:35;;;;;;;10.20;2.30;;;;;;;;;;5091942;28;20511;-67
2022/05/05 06:52:01;;;;;;;5.03;1.95;;;;;;;;;;5091609;28;20413;-69
2022/05/05 06:54:28;;;;;;;4.35;1.80;;;;;;;;;;5091632;28;20174;-69
2022/05/05 06:56:54;;;;;;;7.22;1.85;;;;;;;;;;5090817;28;20047;-69
2022/05/05 06:59:20;;;;;;;7.75;1.90;;;;;;;;;;5091814;28;20044;-68
2022/05/05 07:01:53;;;;;;;5.85;2.30;;;;;;;;;;5091114;28;20052;-68
2022/05/05 07:07:10;;;;;;;5.38;2.30;;;;;;;;;;5091547;28;20044;-69
2022/05/05 07:12:21;;;;;;;5.30;2.25;;;;;;;;;;5073255;28;20052;-68
2022/05/05 07:14:47;;;;;;;4.70;1.92;;;;;;;;;;5090947;28;20430;-68
2022/05/05 07:17:14;;;;;;;5.22;2.40;;;;;;;;;;5091461;28;20477;-67
2022/05/05 07:19:40;;;;;;;7.45;2.33;;;;;;;;;;5073072;28;20146;-67
2022/05/05 07:22:06;;;;;;;5.65;2.08;;;;;;;;;;5091434;28;20386;-68
2022/05/05 07:24:33;;;;;;;5.30;1.90;;;;;;;;;;5090887;28;20044;-68
2022/05/05 07:26:59;;;;;;;4.72;1.85;;;;;;;;;;5091290;28;20048;-69
2022/05/05 07:29:25;;;;;;;4.93;2.03;;;;;;;;;;5090798;28;20044;-69
2022/05/05 07:31:51;;;;;;;5.35;1.83;;;;;;;;;;5090554;28;20040;-70
2022/05/05 07:34:20;;;;;;;3.65;1.90;;;;;;;;;;5091103;28;20044;-68
2022/05/05 07:36:47;;;;;;;3.80;1.80;;;;;;;;;;5090564;28;20401;-69
2022/05/05 07:39:13;;;;;;;3.33;2.08;;;;;;;;;;5090202;28;20060;-69
2022/05/05 07:41:39;;;;;;;5.60;2.08;;;;;;;;;;5090317;28;20466;-69
2022/05/05 07:44:06;;;;;;;5.10;2.20;;;;;;;;;;5090546;28;20721;-68
2022/05/05 07:46:36;;;;;;;6.43;2.10;;;;;;;;;;5070710;28;20096;-68
2022/05/05 07:49:02;;;;;;;;;;;;;;;;;;5071014;28;20040;-67
2022/05/05 07:51:28;;;;;;;3.60;1.75;;;;;;;;;;5070338;28;20065;-68
2022/05/05 07:56:40;;;;;;;3.33;1.67;;;;;;;;;;5085064;28;20044;-68
2022/05/05 07:59:07;;;;;;;4.05;2.05;;;;;;;;;;5088602;28;20167;-67
2022/05/05 08:01:33;;;;;;;4.90;1.88;;;;;;;;;;5088662;28;20078;-69
2022/05/05 08:03:59;;;;;;;4.00;2.00;;;;;;;;;;5068733;28;20124;-68
2022/05/05 08:06:26;;;;;;;3.78;1.90;;;;;;;;;;5088605;28;20040;-67
2022/05/05 08:08:52;;;;;;;3.90;1.83;;;;;;;;;;5088246;28;20089;-68
2022/05/05 08:11:18;;;;;;;4.10;1.95;;;;;;;;;;5088180;28;20052;-67
2022/05/05 08:13:44;;;;;;;5.53;2.00;;;;;;;;;;5087836;28;20501;-68
2022/05/05 08:16:10;;;;;;;4.43;1.90;;;;;;;;;;5088206;28;20051;-68
2022/05/05 08:18:38;;;;;;;4.88;1.90;;;;;;;;;;5070139;28;20044;-69
2022/05/05 08:21:05;;;;;;;6.10;2.00;;;;;;;;;;5067594;28;20056;-69
2022/05/05 08:23:31;;;;;;;3.47;1.80;;;;;;;;;;5069960;28;20127;-69
2022/05/05 08:28:42;;;;;;;9.10;2.30;;;;;;;;;;5068796;28;20052;-69
2022/05/05 08:31:10;;;;;;;7.63;2.50;;;;;;;;;;5069950;28;20044;-68
2022/05/05 08:33:36;;;;;;;6.25;2.55;;;;;;;;;;5087569;28;20040;-69
2022/05/05 08:36:02;;;;;;;5.47;2.42;;;;;;;;;;5087629;28;20568;-68
2022/05/05 08:38:28;;;;;;;5.57;2.45;;;;;;;;;;5087624;28;20083;-69
2022/05/05 08:40:54;;;;;;;4.45;2.22;;;;;;;;;;5087388;28;20043;-68
2022/05/05 08:43:20;;;;;;;4.30;2.08;;;;;;;;;;5087179;28;20048;-70
2022/05/05 08:45:47;;;;;;;4.18;2.20;;;;;;;;;;5069873;28;20516;-69
2022/05/05 08:48:14;;;;;;;6.40;2.65;;;;;;;;;;5087201;28;20035;-68
2022/05/05 08:50:44;;;;;;;5.95;2.30;;;;;;;;;;5087741;28;20052;-68
2022/05/05 08:53:12;;;;;;;5.93;2.35;;;;;;;;;;5085874;28;20405;-68
2022/05/05 08:55:38;;;;;;;6.53;2.50;;;;;;;;;;5068775;28;20109;-68
2022/05/05 08:58:04;;;;;;;6.82;2.60;;;;;;;;;;5088008;28;20096;-68
2022/05/05 09:00:31;;;;;;;4.80;2.08;;;;;;;;;;5087450;28;20086;-68
2022/05/05 09:03:01;;;;;;;5.15;2.90;;;;;;;;;;5086594;28;20044;-70
2022/05/05 09:05:45;;;;;;;6.80;2.80;;;;;;;;;;5052713;28;20756;-69
2022/05/05 09:08:12;;;;;;;5.07;2.30;;;;;;;;;;5087195;28;20520;-69
2022/05/05 09:10:42;;;;;;;6.45;2.40;;;;;;;;;;5085086;28;20072;-70
2022/05/05 09:13:08;;;;;;;4.93;2.40;;;;;;;;;;5087357;28;20047;-68
2022/05/05 09:15:37;;;;;;;7.18;2.60;;;;;;;;;;5086897;28;20048;-68
2022/05/05 09:18:13;;;;;;;5.60;2.75;;;;;;;;;;5068470;28;20054;-70
2022/05/05 09:20:39;;;;;;;5.88;2.28;;;;;;;;;;5067436;28;20048;-67
2022/05/05 09:23:05;;;;;;;3.95;2.28;;;;;;;;;;5088847;28;20047;-68
2022/05/05 09:25:47;;;;;;;4.82;2.33;;;;;;;;;;5088557;28;20051;-69
2022/05/05 09:28:22;;;;;;;7.55;2.83;;;;;;;;;;5070541;28;20056;-68
2022/05/05 09:30:52;;;;;;;5.65;2.53;;;;;;;;;;5088813;28;20093;-67
2022/05/05 09:33:36;;;;;;;4.95;2.25;;;;;;;;;;5088744;28;20123;-67
2022/05/05 09:36:05;;;;;;;6.28;2.60;;;;;;;;;;5086348;28;20066;-67
2022/05/05 09:38:53;;;;;;;8.20;2.47;;;;;;;;;;5086408;28;20036;-68
2022/05/05 09:41:20;;;;;;;4.45;2.22;;;;;;;;;;5086834;28;20076;-67
2022/05/05 09:43:47;;;;;;;6.65;2.35;;;;;;;;;;5086753;28;20118;-67
2022/05/05 09:46:28;;;;;;;4.38;2.50;;;;;;;;;;5086686;28;20047;-67
2022/05/05 09:49:08;;;;;;;4.00;2.42;;;;;;;;;;5068148;28;20036;-68
2022/05/05 09:51:44;;;;;;;5.47;2.53;;;;;;;;;;5068065;28;20052;-68
2022/05/05 09:59:46;;;;;;;4.65;2.33;;;;;;;;;;5068235;28;20101;-69
2022/05/05 10:02:26;;;;;;;5.22;2.67;;;;;;;;;;5068931;28;20051;-68
2022/05/05 10:04:55;;;;;;;3.30;2.20;;;;;;;;;;5066952;28;20086;-68
2022/05/05 10:07:21;;;;;;;4.72;2.40;;;;;;;;;;5082634;28;20142;-69
2022/05/05 10:09:49;;;;;;;7.40;2.88;;;;;;;;;;5068461;28;20051;-69
2022/05/05 10:12:16;;;;;;;5.95;2.45;;;;;;;;;;5084391;28;20059;-68
2022/05/05 10:14:43;;;;;;;7.03;2.72;;;;;;;;;;5086470;28;20044;-69
2022/05/05 10:17:10;;;;;;;3.95;2.33;;;;;;;;;;5067525;28;20055;-69
2022/05/05 10:19:37;;;;;;;5.85;2.45;;;;;;;;;;5084303;28;20520;-69
2022/05/05 10:22:03;;;;;;;4.82;2.40;;;;;;;;;;5086758;28;20141;-68
2022/05/05 10:24:34;;;;;;;6.20;2.30;;;;;;;;;;5086496;28;20413;-68
2022/05/05 10:27:01;;;;;;;4.32;2.25;;;;;;;;;;5086794;28;20052;-69
2022/05/05 10:29:39;;;;;;;4.82;2.50;;;;;;;;;;5086234;28;20417;-70
2022/05/05 10:32:24;;;;;;;7.10;2.80;;;;;;;;;;5086429;28;20458;-70
2022/05/05 10:35:02;;;;;;;6.65;2.53;;;;;;;;;;5089004;28;20301;-69
2022/05/05 10:37:32;;;;;;;5.63;2.30;;;;;;;;;;5070155;28;20114;-68
2022/05/05 10:39:58;;;;;;;6.05;2.30;;;;;;;;;;5055285;28;20044;-69
2022/05/05 10:42:27;;;;;;;5.75;2.40;;;;;;;;;;5089851;28;20074;-69
2022/05/05 10:45:06;;;;;;;6.90;2.60;;;;;;;;;;5090223;28;20051;-70
2022/05/05 10:47:47;;;;;;;4.13;2.10;;;;;;;;;;5069550;28;20537;-69
2022/05/05 10:50:28;;;;;;;5.07;2.58;;;;;;;;;;5087851;28;20044;-69
2022/05/05 10:52:55;;;;;;;7.35;2.50;;;;;;;;;;5088400;28;20044;-68
2022/05/05 10:55:22;;;;;;;4.90;2.70;;;;;;;;;;5089721;28;20036;-68
2022/05/05 10:57:48;;;;;;;5.28;2.45;;;;;;;;;;5088892;28;20050;-68
2022/05/05 11:00:18;;;;;;;3.95;2.20;;;;;;;;;;5089114;28;20040;-68
2022/05/05 11:02:44;;;;;;;;;;;;;;;;;;5089552;28;20378;-69
2022/05/05 11:05:29;;;;;;;5.22;2.60;;;;;;;;;;5089017;28;19935;-68
2022/05/05 11:08:17;;;;;;;4.45;2.47;;;;;;;;;;5089319;28;20044;-69
2022/05/05 11:10:45;;;;;;;4.20;2.60;;;;;;;;;;5090326;28;20048;-69
2022/05/05 11:13:30;;;;;;;4.63;2.65;;;;;;;;;;5091269;28;20055;-68
2022/05/05 11:21:37;;;;;;;3.72;2.30;;;;;;;;;;5091044;28;20048;-69
2022/05/05 11:24:04;;;;;;;5.75;2.33;;;;;;;;;;5072334;28;20553;-68
2022/05/05 11:26:32;;;;;;;8.43;2.38;;;;;;;;;;5090698;28;20066;-68
2022/05/05 11:28:58;;;;;;;4.70;2.45;;;;;;;;;;5071911;28;20494;-69
2022/05/05 11:31:26;;;;;;;4.85;2.70;;;;;;;;;;5090759;28;20048;-69
2022/05/05 11:33:57;;;;;;;5.10;2.58;;;;;;;;;;5090840;28;20048;-69
2022/05/05 11:36:29;;;;;;;6.97;2.70;;;;;;;;;;5090424;28;20051;-68
2022/05/05 11:38:56;;;;;;;5.40;2.65;;;;;;;;;;5090131;28;20051;-67
2022/05/05 11:41:22;;;;;;;6.00;2.30;;;;;;;;;;5055855;28;20048;-68
2022/05/05 11:46:36;;;;;;;3.95;2.60;;;;;;;;;;5090291;28;20107;-69
2022/05/05 11:49:02;;;;;;;4.90;2.50;;;;;;;;;;5090623;28;20417;-68
2022/05/05 11:51:31;;;;;;;8.15;3.33;;;;;;;;;;5089956;28;20559;-69
2022/05/05 11:54:11;;;;;;;5.22;2.75;;;;;;;;;;5089054;28;20146;-69
2022/05/05 11:56:38;;;;;;;13.13;2.97;;;;;;;;;;5063611;28;20055;-69
2022/05/05 12:02:06;;;;;;;5.38;2.60;;;;;;;;;;5089823;28;20044;-73
2022/05/05 12:04:34;;;;;;;4.82;2.67;;;;;;;;;;5070578;28;20048;-70
2022/05/05 12:07:01;;;;;;;4.28;2.55;;;;;;;;;;5054231;28;20057;-69
2022/05/05 12:09:28;;;;;;;5.65;2.47;;;;;;;;;;5069995;28;20043;-70
2022/05/05 12:11:54;;;;;;;5.22;2.10;;;;;;;;;;5070524;28;20173;-68
2022/05/05 12:14:23;;;;;;;4.50;2.65;;;;;;;;;;5088352;28;20051;-70
2022/05/05 12:16:50;;;;;;;3.43;2.20;;;;;;;;;;5087477;28;20048;-70
2022/05/05 12:19:18;;;;;;;3.88;2.40;;;;;;;;;;5086617;28;20047;-68
2022/05/05 12:21:54;;;;;;;3.45;2.22;;;;;;;;;;5087990;28;20039;-69
2022/05/05 12:24:24;;;;;;;4.43;2.47;;;;;;;;;;5087870;28;20440;-68
2022/05/05 12:26:51;;;;;;;4.70;2.70;;;;;;;;;;5069423;28;20044;-68
2022/05/05 12:29:20;;;;;;;4.95;2.50;;;;;;;;;;5069529;28;20509;-69
2022/05/05 12:31:55;;;;;;;4.10;2.35;;;;;;;;;;5069685;28;20147;-68
2022/05/05 12:34:25;;;;;;;4.82;2.38;;;;;;;;;;5087238;28;20069;-68
2022/05/05 12:37:13;;;;;;;4.60;2.67;;;;;;;;;;5052927;28;20058;-69
2022/05/05 12:39:52;;;;;;;5.43;2.83;;;;;;;;;;5087747;28;20089;-69
2022/05/05 12:42:18;;;;;;;3.40;2.28;;;;;;;;;;5087370;28;20044;-71
2022/05/05 12:44:45;;;;;;;3.97;2.40;;;;;;;;;;5069119;28;20047;-70
2022/05/05 12:47:11;;;;;;;5.60;2.70;;;;;;;;;;5085256;28;20454;-68
2022/05/05 12:49:38;;;;;;;4.90;2.58;;;;;;;;;;5068800;28;20043;-68
2022/05/05 12:52:05;;;;;;;3.80;2.42;;;;;;;;;;5086995;28;20417;-68
2022/05/05 13:00:03;;;;;;;3.83;2.40;;;;;;;;;;5085239;28;20054;-68
2022/05/05 13:02:30;;;;;;;5.13;3.10;;;;;;;;;;5068869;28;20048;-68
2022/05/05 13:04:56;;;;;;;4.05;2.80;;;;;;;;;;5087305;28;20139;-67
2022/05/05 13:07:22;;;;;;;4.75;2.65;;;;;;;;;;5087515;28;20070;-68
2022/05/05 13:09:48;;;;;;;3.92;2.10;;;;;;;;;;5087740;28;20474;-68
2022/05/05 13:12:14;;;;;;;7.47;2.60;;;;;;;;;;5087751;28;20047;-68
2022/05/05 13:14:40;;;;;;;5.22;2.60;;;;;;;;;;5069192;28;20040;-68
2022/05/05 13:17:06;;;;;;;3.88;2.17;;;;;;;;;;5084940;28;20051;-67
2022/05/05 13:19:32;;;;;;;4.28;2.53;;;;;;;;;;5067610;28;20574;-68
2022/05/05 13:21:59;;;;;;;3.97;2.28;;;;;;;;;;5052215;28;20097;-68
2022/05/05 13:24:25;;;;;;;3.58;2.53;;;;;;;;;;5069206;28;20161;-69
2022/05/05 13:26:51;;;;;;;5.38;2.67;;;;;;;;;;5087330;28;20526;-68
2022/05/05 13:29:17;;;;;;;4.10;2.38;;;;;;;;;;5087383;28;20036;-69
2022/05/05 13:31:43;;;;;;;4.53;2.40;;;;;;;;;;5087575;28;20404;-69
2022/05/05 13:34:09;;;;;;;3.22;2.28;;;;;;;;;;5087451;28;20409;-69
2022/05/05 13:36:36;;;;;;;3.10;2.30;;;;;;;;;;5066949;28;20045;-69
2022/05/05 13:39:02;;;;;;;3.47;2.17;;;;;;;;;;5087080;28;20040;-68
2022/05/05 13:41:28;;;;;;;4.47;2.40;;;;;;;;;;5086847;28;20090;-72
2022/05/05 13:43:54;;;;;;;3.50;2.53;;;;;;;;;;5086161;28;20043;-69
2022/05/05 13:46:20;;;;;;;3.90;2.80;;;;;;;;;;5086525;28;20072;-70
2022/05/05 13:48:46;;;;;;;4.35;2.30;;;;;;;;;;5087014;28;20032;-68
2022/05/05 13:51:13;;;;;;;4.05;2.63;;;;;;;;;;5086570;28;20036;-71
2022/05/05 13:53:39;;;;;;;5.43;2.53;;;;;;;;;;5086786;28;20040;-68
2022/05/05 13:56:05;;;;;;;3.97;2.35;;;;;;;;;;5084938;28;20122;-70
2022/05/05 13:58:31;;;;;;;4.22;2.58;;;;;;;;;;5087089;28;20438;-71
2022/05/05 14:00:57;;;;;;;4.05;2.60;;;;;;;;;;5052394;28;20078;-70
2022/05/05 14:03:23;;;;;;;3.53;2.33;;;;;;;;;;5086563;28;20435;-70
2022/05/05 14:05:49;;;;;;;4.45;2.78;;;;;;;;;;5068385;28;20093;-72
2022/05/05 14:13:45;;;;;;;4.00;2.53;;;;;;;;;;5089876;28;20124;-71
2022/05/05 14:16:11;;;;;;;3.75;2.60;;;;;;;;;;5090571;28;20063;-70
2022/05/05 14:18:38;;;;;;;4.60;2.65;;;;;;;;;;5088703;28;20057;-71
2022/05/05 14:21:05;;;;;;;4.35;2.60;;;;;;;;;;5090673;28;20382;-71
2022/05/05 14:23:31;;;;;;;3.88;2.55;;;;;;;;;;5089986;28;20556;-70
2022/05/05 14:25:57;;;;;;;2.88;2.05;;;;;;;;;;5055295;28;20047;-67
2022/05/05 14:28:23;;;;;;;4.57;2.35;;;;;;;;;;5090634;28;20404;-68
2022/05/05 14:30:49;;;;;;;3.63;2.33;;;;;;;;;;5072023;28;20051;-69
2022/05/05 14:33:17;;;;;;;3.92;2.83;;;;;;;;;;5090218;28;20119;-69
2022/05/05 14:35:43;;;;;;;4.70;2.70;;;;;;;;;;5071829;28;20051;-67
2022/05/05 14:38:09;;;;;;;3.88;2.60;;;;;;;;;;5089920;28;20443;-67
2022/05/05 14:40:35;;;;;;;5.40;2.80;;;;;;;;;;5090054;28;20046;-69
2022/05/05 14:43:01;;;;;;;3.00;2.30;;;;;;;;;;5089717;28;20084;-70
2022/05/05 14:45:28;;;;;;;3.15;2.38;;;;;;;;;;5090008;28;20055;-69
2022/05/05 14:47:54;;;;;;;4.40;2.50;;;;;;;;;;5071589;28;20075;-70
2022/05/05 14:50:20;;;;;;;4.30;2.50;;;;;;;;;;5089346;28;20398;-71
2022/05/05 14:52:46;;;;;;;3.28;2.40;;;;;;;;;;5090188;28;20749;-70
2022/05/05 14:55:12;;;;;;;3.50;2.47;;;;;;;;;;5089780;28;20071;-69
2022/05/05 14:57:38;;;;;;;5.03;2.72;;;;;;;;;;5087190;28;20044;-69
2022/05/05 15:00:06;;;;;;;4.40;2.80;;;;;;;;;;5089714;28;20527;-71
2022/05/05 15:02:32;;;;;;;4.10;2.45;;;;;;;;;;5089459;28;20400;-71
2022/05/05 15:04:58;;;;;;;3.25;2.35;;;;;;;;;;5070585;28;20516;-70
2022/05/05 15:07:24;;;;;;;4.43;2.25;;;;;;;;;;5089685;28;20044;-71
2022/05/05 15:09:50;;;;;;;4.05;2.35;;;;;;;;;;5070572;28;20174;-71
2022/05/05 15:12:18;;;;;;;2.72;2.25;;;;;;;;;;5089381;28;20044;-69
2022/05/05 15:14:46;;;;;;;4.78;2.50;;;;;;;;;;5089453;28;20036;-70
2022/05/05 15:17:13;;;;;;;3.90;2.38;;;;;;;;;;5071603;28;20460;-70
2022/05/05 15:19:39;;;;;;;4.47;2.60;;;;;;;;;;5088092;28;20036;-69
2022/05/05 15:22:05;;;;;;;3.80;2.63;;;;;;;;;;5089284;28;20032;-70
2022/05/05 15:24:34;;;;;;;4.72;2.35;;;;;;;;;;5090333;28;20091;-68
2022/05/05 15:27:00;;;;;;;3.47;2.63;;;;;;;;;;5090693;28;20109;-68
2022/05/05 15:29:26;;;;;;;4.18;2.58;;;;;;;;;;5067755;28;20846;-69
2022/05/05 15:31:52;;;;;;;4.90;2.88;;;;;;;;;;5088688;28;20486;-68
2022/05/05 15:34:18;;;;;;;4.68;2.72;;;;;;;;;;5089245;28;20063;-66
2022/05/05 15:36:44;;;;;;;4.18;2.72;;;;;;;;;;5088652;28;20493;-68